Time;durP1;ratioP1;P1;durP2;ratioP2;P2;SDS_P1;SDS_P2;PMS_P1;PMS_P2;Temp;Humidity;BMP_temperature;BMP_pressure;BME280_temperature;BME280_humidity;BME280_pressure;Samples;Min_cycle;Max_cycle;Signal;HPM_P1;HPM_P2
2022/08/06 00:02:30;;;;;;;0.30;0.30;;;24.90;65.10;;;25.33;51.57;95001.53;5053704;28;20222;-78
2022/08/06 00:05:02;;;;;;;0.40;0.40;;;24.90;64.90;;;25.28;52.10;95017.69;5063782;28;20603;-77
2022/08/06 00:07:33;;;;;;;0.35;0.35;;;24.90;65.40;;;25.22;53.17;95024.19;5064266;28;20223;-77
2022/08/06 00:10:15;;;;;;;0.40;0.40;;;24.90;65.80;;;25.14;53.77;95038.19;5030150;28;20202;-78
2022/08/06 00:12:42;;;;;;;0.30;0.30;;;24.90;66.90;;;25.01;54.09;95040.44;5032943;28;20562;-77
2022/08/06 00:15:13;;;;;;;0.30;0.30;;;24.80;67.30;;;24.85;55.80;95049.69;5031171;28;20295;-77
2022/08/06 00:17:42;;;;;;;0.30;0.30;;;24.70;67.20;;;24.69;55.75;95062.41;5031910;28;20251;-78
2022/08/06 00:20:15;;;;;;;0.30;0.30;;;24.60;68.00;;;24.48;57.46;95062.47;4996851;28;20215;-78
2022/08/06 00:22:59;;;;;;;0.30;0.30;;;24.50;69.10;;;24.17;57.88;95061.81;5038711;28;20208;-77
2022/08/06 00:25:28;;;;;;;0.30;0.30;;;24.20;69.60;;;23.94;58.80;95069.41;4995195;28;20299;-77
2022/08/06 00:28:02;;;;;;;0.38;0.38;;;24.00;70.00;;;23.74;60.01;95075.59;5012383;28;20219;-77
2022/08/06 00:30:37;;;;;;;0.52;0.52;;;23.90;70.90;;;23.58;60.40;95066.78;5041960;28;20207;-77
2022/08/06 00:33:04;;;;;;;0.40;0.40;;;23.60;71.30;;;23.42;61.02;95066.00;5064198;28;20207;-77
2022/08/06 00:35:32;;;;;;;0.30;0.30;;;23.50;72.40;;;23.32;61.64;95080.19;5063817;28;20598;-77
2022/08/06 00:38:00;;;;;;;0.30;0.30;;;23.30;72.60;;;23.21;61.08;95082.06;5063622;28;20196;-77
2022/08/06 00:40:29;;;;;;;0.30;0.30;;;23.10;73.00;;;23.14;61.90;95078.81;5045459;28;20191;-77
2022/08/06 00:42:59;;;;;;;0.30;0.30;;;23.00;73.50;;;23.01;61.62;95077.50;5028933;28;20225;-77
2022/08/06 00:45:34;;;;;;;0.40;0.40;;;22.90;73.90;;;22.94;62.56;95091.13;5058313;28;20419;-78
2022/08/06 00:48:08;;;;;;;0.30;0.30;;;22.80;74.20;;;22.89;62.33;95090.28;5037383;28;20207;-77
2022/08/06 00:50:55;;;;;;;0.35;0.35;;;22.60;74.50;;;22.81;63.16;95108.50;5021541;28;20215;-77
2022/08/06 00:53:22;;;;;;;0.38;0.38;;;22.60;75.00;;;22.78;62.12;95113.56;5032450;28;20199;-78
2022/08/06 00:55:49;;;;;;;0.30;0.30;;;22.50;75.10;;;22.71;63.85;95122.63;5045186;28;20376;-78
2022/08/06 00:58:28;;;;;;;0.30;0.30;;;22.40;75.50;;;22.71;62.50;95116.47;5018787;28;20256;-77
2022/08/06 01:01:08;;;;;;;0.30;0.30;;;22.40;75.40;;;22.68;62.35;95125.84;5036759;28;20702;-78
2022/08/06 01:03:47;;;;;;;0.50;0.50;;;22.30;75.70;;;22.68;62.45;95143.75;5029363;28;20212;-77
2022/08/06 01:06:22;;;;;;;0.40;0.40;;;22.30;75.70;;;22.67;62.81;95153.63;5017902;28;20269;-77
2022/08/06 01:09:09;;;;;;;0.40;0.40;;;22.20;76.20;;;22.59;63.65;95143.44;5035385;28;20205;-78
2022/08/06 01:11:40;;;;;;;0.30;0.30;;;22.20;76.20;;;22.64;63.12;95148.81;5019651;28;20218;-77
2022/08/06 01:14:08;;;;;;;0.30;0.30;;;22.20;76.00;;;22.66;63.20;95164.59;5014238;28;20321;-78
2022/08/06 01:17:01;;;;;;;0.40;0.40;;;22.20;76.40;;;22.63;62.46;95159.75;4998361;28;20219;-78
2022/08/06 01:20:34;;;;;;;0.38;0.38;;;22.20;76.80;;;22.65;62.96;95177.13;5038033;28;20195;-78
2022/08/06 01:23:59;;;;;;;0.40;0.40;;;22.20;76.70;;;22.65;62.89;95179.81;5037822;28;20208;-78
2022/08/06 01:26:51;;;;;;;0.40;0.40;;;22.30;77.00;;;22.67;63.17;95191.06;4994512;28;20233;-78
2022/08/06 01:29:30;;;;;;;0.32;0.32;;;22.30;76.80;;;22.69;62.97;95186.25;5039424;28;20287;-79
2022/08/06 01:32:08;;;;;;;0.40;0.40;;;22.30;76.50;;;22.71;63.23;95194.00;5026094;28;20318;-78
2022/08/06 01:34:40;;;;;;;0.30;0.30;;;22.30;76.70;;;22.74;62.89;95195.34;5046156;28;20290;-79
2022/08/06 01:37:23;;;;;;;0.30;0.30;;;22.30;76.90;;;22.74;63.28;95208.72;5057435;28;20693;-77
2022/08/06 01:40:00;;;;;;;0.40;0.40;;;22.30;77.60;;;22.73;63.75;95207.13;5047237;28;20568;-78
2022/08/06 01:42:32;;;;;;;0.40;0.40;;;22.30;77.50;;;22.75;63.67;95210.34;5011086;28;20215;-78
2022/08/06 01:45:09;;;;;;;0.40;0.40;;;22.30;76.80;;;22.75;63.18;95202.31;5027059;28;20196;-78
2022/08/06 01:47:39;;;;;;;0.40;0.40;;;22.30;77.00;;;22.76;62.95;95201.25;5044428;28;20271;-78
2022/08/06 01:50:28;;;;;;;0.35;0.35;;;22.30;76.90;;;22.79;63.19;95196.19;5058019;28;20196;-77
2022/08/06 01:53:00;;;;;;;0.30;0.30;;;22.30;77.80;;;22.79;63.19;95203.38;5021983;28;20245;-78
2022/08/06 01:55:33;;;;;;;0.30;0.30;;;22.30;77.00;;;22.80;63.53;95205.00;5041751;28;20631;-77
2022/08/06 01:58:28;;;;;;;0.40;0.40;;;22.30;77.00;;;22.83;63.10;95207.97;5052576;28;20187;-78
2022/08/06 02:01:00;;;;;;;0.40;0.40;;;22.30;77.10;;;22.85;62.81;95197.00;5041570;28;20284;-77
2022/08/06 02:03:36;;;;;;;0.40;0.40;;;22.40;77.00;;;22.85;62.94;95192.47;5012796;28;20219;-78
2022/08/06 02:06:42;;;;;;;0.50;0.50;;;22.30;76.70;;;22.88;63.33;95203.72;5053444;28;20304;-77
2022/08/06 02:09:20;;;;;;;0.40;0.40;;;22.40;77.00;;;22.89;62.94;95207.97;5041745;28;20227;-77
2022/08/06 02:12:12;;;;;;;0.40;0.40;;;22.40;76.90;;;22.91;62.61;95201.31;5031365;28;20221;-78
2022/08/06 02:15:11;;;;;;;0.50;0.50;;;22.40;76.70;;;22.94;62.79;95200.78;5029358;28;20666;-78
2022/08/06 02:17:47;;;;;;;0.50;0.50;;;22.40;77.10;;;22.98;62.61;95196.50;5056320;28;20685;-78
2022/08/06 02:20:42;;;;;;;0.40;0.40;;;22.40;77.10;;;23.01;62.64;95201.34;5029931;28;20289;-78
2022/08/06 02:23:24;;;;;;;0.50;0.50;;;22.50;77.20;;;23.05;62.62;95204.28;5030495;28;20257;-77
2022/08/06 02:26:00;;;;;;;0.30;0.30;;;22.50;76.80;;;23.02;62.67;95202.13;5054786;28;20364;-78
2022/08/06 02:28:29;;;;;;;0.35;0.35;;;22.50;76.70;;;23.06;62.72;95195.19;5055253;28;20199;-78
2022/08/06 02:30:58;;;;;;;0.40;0.40;;;22.50;76.60;;;23.03;62.91;95206.41;5014845;28;20630;-78
2022/08/06 02:33:28;;;;;;;0.30;0.30;;;22.50;76.60;;;23.03;62.55;95204.56;5050898;28;20641;-79
2022/08/06 02:36:34;;;;;;;0.32;0.32;;;22.50;76.60;;;23.01;62.95;95203.22;5027088;28;20668;-78
2022/08/06 02:39:25;;;;;;;0.30;0.30;;;22.50;76.80;;;22.94;64.11;95202.66;5029999;28;20202;-78
2022/08/06 02:42:32;;;;;;;0.32;0.32;;;22.60;77.00;;;22.85;63.43;95205.84;5035403;28;20229;-78
2022/08/06 02:45:18;;;;;;;0.40;0.40;;;22.60;77.00;;;22.85;63.36;95203.16;5058326;28;20200;-78
2022/08/06 02:47:50;;;;;;;0.40;0.40;;;22.50;77.60;;;22.84;63.08;95201.56;5038209;28;20234;-79
2022/08/06 02:50:42;;;;;;;0.35;0.35;;;22.50;76.80;;;22.83;63.17;95205.28;5044188;28;20262;-80
2022/08/06 02:53:19;;;;;;;0.40;0.40;;;22.40;76.90;;;22.83;63.05;95196.47;5049559;28;20203;-79
2022/08/06 02:56:00;;;;;;;0.40;0.40;;;22.40;77.30;;;22.83;63.13;95193.81;5050535;28;20231;-78
2022/08/06 02:58:52;;;;;;;0.30;0.30;;;22.40;77.20;;;22.84;63.11;95190.06;5022312;28;20217;-78
2022/08/06 03:01:53;;;;;;;0.30;0.30;;;22.40;77.20;;;22.84;62.97;95196.19;5013272;28;20337;-78
2022/08/06 03:04:24;;;;;;;0.38;0.38;;;22.40;77.50;;;22.86;63.32;95206.63;5039699;28;20667;-78
2022/08/06 03:07:05;;;;;;;0.30;0.30;;;22.40;76.90;;;22.87;63.05;95197.53;5046966;28;20224;-78
2022/08/06 03:09:54;;;;;;;0.40;0.40;;;22.40;77.00;;;22.86;63.63;95209.31;5023102;28;20204;-78
2022/08/06 03:12:25;;;;;;;0.40;0.40;;;22.40;76.90;;;22.85;62.89;95203.16;5020249;28;20208;-77
2022/08/06 03:15:01;;;;;;;0.40;0.40;;;22.40;77.40;;;22.90;62.96;95189.00;5039065;28;20318;-78
2022/08/06 03:17:40;;;;;;;0.35;0.35;;;22.40;77.00;;;22.93;62.65;95201.84;5041318;28;20681;-78
2022/08/06 03:20:09;;;;;;;0.40;0.40;;;22.40;77.00;;;22.95;62.77;95199.72;5022447;28;20204;-78
2022/08/06 03:22:49;;;;;;;0.30;0.30;;;22.40;76.80;;;22.97;62.79;95207.47;5014210;28;20295;-78
2022/08/06 03:25:18;;;;;;;0.40;0.40;;;22.40;76.80;;;22.97;62.86;95200.28;5013293;28;20196;-77
2022/08/06 03:27:51;;;;;;;0.35;0.35;;;22.50;76.80;;;22.98;62.49;95209.09;5012734;28;20232;-79
2022/08/06 03:30:30;;;;;;;0.30;0.30;;;22.50;76.80;;;22.94;62.70;95206.13;5009599;28;20621;-78
2022/08/06 03:33:07;;;;;;;0.30;0.30;;;22.50;76.70;;;22.94;62.76;95214.16;5062252;28;20184;-79
2022/08/06 03:35:57;;;;;;;0.40;0.40;;;22.50;76.70;;;22.95;62.69;95234.50;5057685;28;20667;-78
2022/08/06 03:38:33;;;;;;;0.50;0.50;;;22.50;76.60;;;22.93;62.22;95231.25;5061969;28;20210;-78
2022/08/06 03:41:03;;;;;;;0.32;0.32;;;22.50;76.50;;;22.94;62.60;95237.44;5043465;28;20225;-78
2022/08/06 03:43:34;;;;;;;0.40;0.40;;;22.50;76.40;;;22.91;62.41;95225.41;5013666;28;20208;-78
2022/08/06 03:46:35;;;;;;;0.40;0.40;;;22.50;76.40;;;22.93;62.26;95235.81;5030111;28;20215;-78
2022/08/06 03:49:05;;;;;;;0.38;0.38;;;22.50;76.70;;;22.90;62.33;95231.81;5004120;28;20224;-78
2022/08/06 03:51:36;;;;;;;0.30;0.30;;;22.50;76.60;;;22.93;62.63;95236.63;5062122;28;20274;-78
2022/08/06 03:54:27;;;;;;;0.35;0.35;;;22.50;76.70;;;22.92;62.66;95242.22;5033926;28;20202;-78
2022/08/06 03:57:14;;;;;;;0.40;0.40;;;22.50;76.70;;;22.92;62.32;95250.25;5043642;28;20254;-78
2022/08/06 03:59:45;;;;;;;0.40;0.40;;;22.50;76.70;;;22.94;62.57;95258.84;5012393;28;20236;-79
2022/08/06 04:02:53;;;;;;;0.30;0.30;;;22.50;76.60;;;22.93;62.22;95266.03;5026396;28;20703;-79
2022/08/06 04:05:26;;;;;;;0.30;0.30;;;22.50;76.80;;;22.95;62.33;95252.41;5008980;28;20299;-78
2022/08/06 04:08:02;;;;;;;0.30;0.30;;;22.50;76.70;;;22.99;62.39;95259.63;5001478;28;20279;-78
2022/08/06 04:10:40;;;;;;;0.30;0.30;;;22.50;76.80;;;23.02;62.31;95264.47;5024863;28;20207;-78
2022/08/06 04:13:25;;;;;;;0.50;0.50;;;22.50;76.80;;;23.05;62.29;95276.53;5030347;28;20208;-77
2022/08/06 04:16:14;;;;;;;0.40;0.40;;;22.60;76.50;;;23.04;61.98;95285.63;5030339;28;20238;-78
2022/08/06 04:19:01;;;;;;;0.38;0.38;;;22.60;76.40;;;23.05;61.78;95275.72;5063575;28;20625;-78
2022/08/06 04:21:29;;;;;;;0.40;0.40;;;22.60;76.20;;;23.08;62.18;95292.03;5064180;28;20223;-78
2022/08/06 04:24:16;;;;;;;0.30;0.30;;;22.60;76.10;;;23.07;61.68;95281.59;5055777;28;20671;-78
2022/08/06 04:26:49;;;;;;;0.40;0.40;;;22.60;75.90;;;23.07;61.55;95295.81;5028839;28;20227;-79
2022/08/06 04:29:19;;;;;;;0.30;0.30;;;22.60;76.00;;;23.06;61.56;95296.88;5030695;28;20188;-78
2022/08/06 04:31:52;;;;;;;0.40;0.40;;;22.60;75.90;;;23.05;61.64;95297.94;5046589;28;20210;-78
2022/08/06 04:34:40;;;;;;;0.30;0.30;;;22.60;75.90;;;23.02;61.42;95306.47;5043637;28;20204;-78
2022/08/06 04:37:28;;;;;;;0.40;0.40;;;22.60;75.60;;;23.03;61.25;95310.75;5045017;28;20208;-78
2022/08/06 04:40:08;;;;;;;0.38;0.38;;;22.60;75.60;;;23.01;61.65;95305.66;5046169;28;20253;-78
2022/08/06 04:42:42;;;;;;;0.30;0.30;;;22.60;75.60;;;23.02;61.46;95311.81;5044795;28;20290;-77
2022/08/06 04:45:10;;;;;;;0.30;0.30;;;22.60;75.60;;;23.00;61.42;95313.97;5029952;28;20674;-78
2022/08/06 04:47:58;;;;;;;0.30;0.30;;;22.60;75.50;;;23.01;61.31;95316.38;5023371;28;20200;-78
2022/08/06 04:50:26;;;;;;;0.32;0.32;;;22.50;75.40;;;23.02;60.95;95323.34;5050728;28;20635;-78
2022/08/06 04:53:12;;;;;;;0.30;0.30;;;22.60;75.50;;;23.00;61.48;95324.66;5014791;28;20206;-76
2022/08/06 04:56:00;;;;;;;0.30;0.30;;;22.60;75.70;;;22.99;61.28;95328.41;5047113;28;20689;-78
2022/08/06 04:58:30;;;;;;;0.35;0.35;;;22.50;75.40;;;23.00;61.23;95327.34;5045093;28;20601;-79
2022/08/06 05:01:01;;;;;;;0.40;0.40;;;22.60;75.40;;;22.98;61.08;95327.56;5060620;28;20279;-78
2022/08/06 05:03:36;;;;;;;0.40;0.40;;;22.50;75.40;;;22.99;61.29;95336.44;5044921;28;20207;-77
2022/08/06 05:06:43;;;;;;;0.40;0.40;;;22.50;75.30;;;22.94;61.22;95337.19;5061511;28;20265;-78
2022/08/06 05:09:25;;;;;;;0.22;0.22;;;22.60;75.60;;;22.94;61.25;95337.19;5063792;28;20658;-78
2022/08/06 05:12:43;;;;;;;0.40;0.40;;;22.50;75.40;;;22.91;61.11;95340.41;5020892;28;20215;-78
2022/08/06 05:15:39;;;;;;;0.20;0.20;;;22.50;75.20;;;22.88;60.90;95345.47;5046598;28;20380;-79
2022/08/06 05:18:19;;;;;;;0.30;0.30;;;22.50;75.10;;;22.86;60.72;95353.72;5045506;28;20270;-78
2022/08/06 05:21:11;;;;;;;0.32;0.32;;;22.50;75.00;;;22.84;60.95;95350.53;5035378;28;20235;-78
2022/08/06 05:23:48;;;;;;;0.32;0.32;;;22.40;75.00;;;22.83;60.98;95356.94;5035213;28;20207;-78
2022/08/06 05:26:21;;;;;;;0.30;0.30;;;22.50;75.20;;;22.82;60.86;95363.34;5035397;28;20227;-78
2022/08/06 05:28:51;;;;;;;0.30;0.30;;;22.40;75.10;;;22.80;60.49;95365.47;5040761;28;20709;-78
2022/08/06 05:31:36;;;;;;;0.40;0.40;;;22.40;75.00;;;22.75;61.36;95368.13;5065844;28;20219;-77
2022/08/06 05:34:11;;;;;;;0.50;0.50;;;22.40;75.20;;;22.71;60.87;95365.16;5034478;28;20249;-77
2022/08/06 05:36:39;;;;;;;0.30;0.30;;;22.40;75.00;;;22.71;60.90;95378.50;5051668;28;20250;-77
2022/08/06 05:39:09;;;;;;;0.40;0.40;;;22.30;74.90;;;22.66;60.72;95375.81;5022169;28;20204;-77
2022/08/06 05:41:57;;;;;;;0.30;0.30;;;22.30;74.70;;;22.56;60.65;95373.88;5022045;28;20312;-77
2022/08/06 05:44:27;;;;;;;0.40;0.40;;;22.30;74.70;;;22.54;60.70;95381.34;5034004;28;20680;-78
2022/08/06 05:47:12;;;;;;;0.40;0.40;;;22.20;74.60;;;22.50;60.51;95388.28;5009110;28;20224;-77
2022/08/06 05:49:46;;;;;;;0.32;0.32;;;22.20;74.50;;;22.49;60.69;95394.66;5042827;28;20292;-76
2022/08/06 05:52:55;;;;;;;0.30;0.30;;;22.20;74.60;;;22.44;60.63;95395.44;5060099;28;20225;-79
2022/08/06 05:55:30;;;;;;;0.30;0.30;;;22.20;74.60;;;22.47;60.70;95410.16;5028151;28;20226;-78
2022/08/06 05:58:15;;;;;;;0.40;0.40;;;22.20;74.70;;;22.44;60.68;95400.78;5050520;28;20199;-79
2022/08/06 06:00:45;;;;;;;0.30;0.30;;;22.20;74.50;;;22.46;60.80;95401.34;5011876;28;20212;-78
2022/08/06 06:03:15;;;;;;;0.40;0.40;;;22.10;74.30;;;22.48;60.79;95398.41;5016584;28;20567;-79
2022/08/06 06:05:58;;;;;;;0.40;0.40;;;22.10;74.30;;;22.45;60.77;95401.56;5025260;28;20221;-78
2022/08/06 06:08:41;;;;;;;0.50;0.50;;;22.10;74.30;;;22.44;60.43;95406.13;5025482;28;20214;-79
2022/08/06 06:11:27;;;;;;;0.40;0.40;;;22.10;74.20;;;22.44;60.12;95403.44;5018724;28;20266;-78
2022/08/06 06:14:33;;;;;;;0.60;0.60;;;22.10;74.30;;;22.43;60.35;95409.84;5019823;28;20193;-79
2022/08/06 06:17:44;;;;;;;0.32;0.32;;;22.10;74.50;;;22.43;60.64;95414.41;5044277;28;20227;-78
2022/08/06 06:20:38;;;;;;;0.40;0.40;;;22.10;74.30;;;22.31;60.49;95419.88;5026603;28;20336;-79
2022/08/06 06:23:44;;;;;;;0.40;0.40;;;22.10;74.00;;;22.18;60.67;95415.72;5033478;28;20656;-79
2022/08/06 06:27:06;;;;;;;0.40;0.40;;;22.00;73.90;;;22.10;60.78;95425.03;4996792;28;20226;-79
2022/08/06 06:30:02;;;;;;;0.40;0.40;;;21.90;73.90;;;22.05;60.76;95443.69;5010537;28;20215;-79
2022/08/06 06:32:44;;;;;;;0.40;0.40;;;21.90;74.00;;;21.98;60.79;95451.88;5013309;28;20227;-78
2022/08/06 06:35:38;;;;;;;0.40;0.40;;;21.80;74.10;;;21.86;60.77;95449.38;5022097;28;20199;-79
2022/08/06 06:38:48;;;;;;;0.40;0.40;;;21.80;73.90;;;21.75;60.88;95456.44;5047661;28;20646;-78
2022/08/06 06:41:51;;;;;;;0.30;0.30;;;21.70;73.80;;;21.65;60.91;95458.97;5016766;28;20673;-78
2022/08/06 06:44:54;;;;;;;0.40;0.40;;;21.60;73.90;;;21.57;60.56;95470.91;5031966;28;20677;-77
2022/08/06 06:48:09;;;;;;;0.38;0.38;;;21.50;73.80;;;21.50;60.80;95475.59;5059415;28;20216;-79
2022/08/06 06:50:45;;;;;;;0.40;0.40;;;21.40;73.60;;;21.48;60.48;95490.22;5048401;28;20205;-79
2022/08/06 06:53:17;;;;;;;0.40;0.40;;;21.40;73.90;;;21.37;60.55;95490.09;5031548;28;20184;-80
2022/08/06 06:55:53;;;;;;;0.30;0.30;;;21.30;73.60;;;21.26;60.87;95481.16;5044942;28;20582;-80
2022/08/06 06:58:36;;;;;;;0.40;0.40;;;21.20;73.70;;;21.23;61.00;95496.84;5041766;28;20658;-80
2022/08/06 07:01:07;;;;;;;0.40;0.40;;;21.20;73.80;;;21.13;60.86;95497.50;5016083;28;20206;-80
2022/08/06 07:03:56;;;;;;;0.40;0.40;;;21.10;73.60;;;21.02;61.28;95507.19;5019786;28;20200;-80
2022/08/06 07:06:26;;;;;;;0.40;0.40;;;21.00;73.60;;;20.95;61.20;95510.00;5031736;28;20225;-79
2022/08/06 07:09:13;;;;;;;0.40;0.40;;;20.90;73.70;;;20.92;60.81;95512.34;5022340;28;20182;-79
2022/08/06 07:12:03;;;;;;;0.40;0.40;;;20.90;73.70;;;20.88;60.71;95511.22;5032989;28;20220;-79
2022/08/06 07:14:34;;;;;;;0.40;0.40;;;20.80;73.70;;;20.87;60.48;95518.44;5056854;28;20188;-80
2022/08/06 07:17:04;;;;;;;0.50;0.50;;;20.70;73.60;;;20.88;61.16;95524.56;5024901;28;20289;-80
2022/08/06 07:19:56;;;;;;;0.40;0.40;;;20.70;73.80;;;20.88;60.58;95528.03;5038010;28;20189;-79
2022/08/06 07:22:25;;;;;;;0.30;0.30;;;20.70;73.70;;;20.91;60.68;95516.91;5022817;28;20220;-78
2022/08/06 07:24:58;;;;;;;0.40;0.40;;;20.70;73.80;;;20.93;60.46;95528.13;5036942;28;20284;-79
2022/08/06 07:27:34;;;;;;;0.40;0.40;;;20.70;73.70;;;20.94;60.28;95520.94;5053320;28;20258;-80
2022/08/06 07:30:20;;;;;;;0.40;0.40;;;20.70;73.80;;;20.97;60.49;95522.31;5034900;28;20193;-78
2022/08/06 07:32:52;;;;;;;0.40;0.40;;;20.70;73.60;;;21.04;60.48;95533.63;5020970;28;20631;-78
2022/08/06 07:35:21;;;;;;;0.40;0.40;;;20.80;73.70;;;21.06;60.46;95535.00;5042891;28;20224;-79
2022/08/06 07:37:59;;;;;;;0.40;0.40;;;20.80;73.70;;;21.10;59.85;95544.13;5039897;28;20212;-80
2022/08/06 07:40:38;;;;;;;0.30;0.30;;;20.80;73.50;;;21.11;59.81;95550.28;5046131;28;20188;-80
2022/08/06 07:43:25;;;;;;;0.40;0.40;;;20.80;73.10;;;21.10;60.27;95548.66;5029622;28;20207;-78
2022/08/06 07:46:07;;;;;;;0.30;0.30;;;20.90;73.20;;;21.10;60.14;95553.97;5028695;28;20705;-79
2022/08/06 07:48:47;;;;;;;0.40;0.40;;;20.90;73.30;;;21.10;60.17;95552.13;5035102;28;20502;-79
2022/08/06 07:51:23;;;;;;;0.38;0.38;;;20.90;73.10;;;21.15;59.97;95555.94;5026690;28;20713;-79
2022/08/06 07:54:08;;;;;;;0.30;0.30;;;20.90;73.20;;;21.17;59.71;95559.16;5026771;28;20191;-79
2022/08/06 07:56:40;;;;;;;0.40;0.40;;;20.90;73.10;;;21.18;60.11;95563.44;5040807;28;20766;-79
2022/08/06 07:59:28;;;;;;;0.30;0.30;;;21.00;73.00;;;21.13;59.26;95556.19;5023001;28;20203;-78
2022/08/06 08:01:58;;;;;;;0.40;0.40;;;21.00;72.80;;;21.17;59.54;95564.50;5033766;28;20219;-79
2022/08/06 08:07:21;;;;;;;0.40;0.40;;;21.00;72.30;;;21.07;58.95;95559.81;5019020;28;20281;-78
2022/08/06 08:10:11;;;;;;;0.40;0.40;;;21.00;72.20;;;21.02;58.95;95573.03;5006195;28;20215;-80
2022/08/06 08:12:42;;;;;;;0.40;0.40;;;20.90;72.20;;;20.96;59.03;95572.16;5032454;28;20633;-80
2022/08/06 08:15:10;;;;;;;0.40;0.40;;;20.90;72.10;;;20.91;59.12;95569.41;5052295;28;20200;-80
2022/08/06 08:17:49;;;;;;;0.40;0.40;;;20.80;73.00;;;20.90;59.10;95579.28;5023960;28;20224;-80
2022/08/06 08:20:29;;;;;;;0.40;0.40;;;20.80;72.30;;;20.89;59.09;95577.66;5007056;28;20191;-79
2022/08/06 08:23:04;;;;;;;0.40;0.40;;;20.80;72.20;;;20.90;59.34;95581.94;5011626;28;20598;-80
2022/08/06 08:25:35;;;;;;;0.40;0.40;;;20.80;72.20;;;20.91;59.28;95580.88;5010039;28;21381;-79
2022/08/06 08:28:11;;;;;;;0.40;0.40;;;20.80;72.90;;;20.92;58.63;95582.50;5027074;28;20642;-80
2022/08/06 08:30:44;;;;;;;0.40;0.40;;;20.80;72.00;;;20.94;58.46;95591.06;5030189;28;20705;-80
2022/08/06 08:33:20;;;;;;;0.40;0.40;;;20.80;71.90;;;20.92;58.58;95590.50;5018721;28;20207;-79
2022/08/06 08:35:48;;;;;;;0.47;0.47;;;20.80;71.90;;;20.92;58.64;95601.19;5009519;28;20578;-79
2022/08/06 08:38:33;;;;;;;0.40;0.40;;;20.80;71.70;;;20.91;58.39;95596.06;5021656;28;20280;-80
2022/08/06 08:41:09;;;;;;;0.40;0.40;;;20.80;71.50;;;20.93;58.82;95601.97;5039982;28;20223;-80
2022/08/06 08:43:44;;;;;;;0.32;0.32;;;20.80;71.90;;;20.97;58.47;95603.13;5034873;28;20192;-80
2022/08/06 08:46:41;;;;;;;0.40;0.40;;;20.80;71.90;;;21.04;58.59;95592.28;5001996;28;20303;-80
2022/08/06 08:49:43;;;;;;;0.30;0.30;;;20.90;72.00;;;21.22;59.20;95596.59;5012912;28;20663;-78
2022/08/06 08:52:16;;;;;;;0.40;0.40;;;21.00;72.30;;;21.38;59.02;95597.63;5050596;28;20240;-79
2022/08/06 08:54:51;;;;;;;0.40;0.40;;;21.10;72.30;;;21.55;58.86;95606.44;5007642;28;20201;-80
2022/08/06 08:57:21;;;;;;;0.40;0.40;;;21.30;72.30;;;21.74;58.73;95608.91;5018261;28;20776;-79
2022/08/06 09:00:09;;;;;;;0.40;0.40;;;21.40;73.10;;;21.84;57.74;95606.34;5034533;28;20563;-80
2022/08/06 09:02:39;;;;;;;0.45;0.45;;;21.60;71.80;;;21.91;58.35;95616.88;5020883;28;20339;-80
2022/08/06 09:05:17;;;;;;;0.35;0.35;;;21.70;71.50;;;22.00;58.27;95614.59;5022488;28;20205;-80
2022/08/06 09:07:45;;;;;;;0.30;0.30;;;21.80;71.50;;;22.04;57.90;95616.50;5031388;28;20363;-79
2022/08/06 09:10:28;;;;;;;0.32;0.32;;;21.90;71.40;;;22.09;57.35;95614.97;5016038;28;20222;-79
2022/08/06 09:12:59;;;;;;;0.30;0.30;;;22.00;71.20;;;22.14;57.63;95605.16;5056526;28;20199;-78
2022/08/06 09:15:27;;;;;;;0.35;0.35;;;22.00;71.20;;;22.11;57.48;95597.63;5026806;28;20650;-79
2022/08/06 09:17:59;;;;;;;0.35;0.35;;;22.10;70.80;;;22.20;56.91;95606.00;5017137;28;20273;-79
2022/08/06 09:20:48;;;;;;;0.40;0.40;;;22.10;70.40;;;22.23;57.09;95610.88;5037072;28;20302;-78
2022/08/06 09:23:18;;;;;;;0.35;0.35;;;22.10;70.20;;;22.23;56.77;95616.22;5012834;28;20207;-77
2022/08/06 09:25:52;;;;;;;0.30;0.30;;;22.10;70.10;;;22.21;56.74;95624.44;5053104;28;20573;-78
2022/08/06 09:28:41;;;;;;;0.40;0.40;;;22.10;69.80;;;22.14;56.21;95621.19;5040211;28;20202;-79
2022/08/06 09:31:12;;;;;;;0.50;0.50;;;22.20;69.80;;;22.02;56.07;95623.97;5040245;28;20223;-78
2022/08/06 09:33:56;;;;;;;0.50;0.50;;;22.10;69.30;;;22.01;56.31;95632.22;5041293;28;20194;-80
2022/08/06 09:36:48;;;;;;;0.43;0.43;;;22.00;69.20;;;21.97;56.72;95626.56;5031426;28;20238;-80
2022/08/06 09:39:41;;;;;;;0.40;0.40;;;22.00;69.70;;;21.99;56.49;95624.44;5040667;28;20213;-80
2022/08/06 09:42:40;;;;;;;0.32;0.32;;;22.00;69.30;;;21.97;56.08;95628.41;5017879;28;20213;-80
2022/08/06 09:45:12;;;;;;;0.40;0.40;;;22.00;68.90;;;21.95;56.39;95631.34;5021683;28;20657;-80
2022/08/06 09:47:48;;;;;;;0.30;0.30;;;22.00;69.20;;;21.98;55.81;95638.06;5043165;28;20288;-79
2022/08/06 09:50:43;;;;;;;0.30;0.30;;;22.00;69.20;;;21.95;55.20;95636.69;5014398;28;20262;-80
2022/08/06 09:53:13;;;;;;;0.30;0.30;;;22.10;68.80;;;21.94;55.95;95629.72;5036292;28;20735;-79
2022/08/06 09:55:45;;;;;;;0.40;0.40;;;22.10;68.90;;;22.03;56.41;95632.78;5032492;28;20278;-80
2022/08/06 09:58:12;;;;;;;0.30;0.30;;;22.10;69.40;;;22.03;55.88;95627.44;5022918;28;20252;-80
2022/08/06 10:00:40;;;;;;;0.40;0.40;;;22.10;69.30;;;22.14;56.04;95637.22;5038584;28;20208;-79
2022/08/06 10:03:12;;;;;;;0.30;0.30;;;22.10;69.20;;;22.19;56.11;95636.44;5025100;28;20191;-80
2022/08/06 10:06:25;;;;;;;0.30;0.30;;;22.10;69.10;;;22.14;55.27;95641.72;5055934;28;20238;-79
2022/08/06 10:09:08;;;;;;;0.35;0.35;;;22.20;68.20;;;22.11;54.90;95634.22;5039469;28;20213;-80
2022/08/06 10:11:47;;;;;;;0.40;0.40;;;22.20;68.20;;;22.06;55.26;95635.75;5035485;28;20214;-79
2022/08/06 10:14:29;;;;;;;0.40;0.40;;;22.20;68.50;;;22.02;55.12;95641.84;5051317;28;20233;-80
2022/08/06 10:17:15;;;;;;;0.40;0.40;;;22.10;67.80;;;21.96;55.37;95640.16;5057771;28;20623;-78
2022/08/06 10:19:46;;;;;;;0.30;0.30;;;22.10;68.00;;;21.92;55.07;95639.84;5030066;28;20191;-78
2022/08/06 10:22:19;;;;;;;0.35;0.35;;;22.00;68.20;;;21.90;55.41;95639.28;5032613;28;20244;-79
2022/08/06 10:24:54;;;;;;;0.32;0.32;;;22.00;68.50;;;21.90;54.89;95642.75;5055880;28;20289;-78
2022/08/06 10:27:35;;;;;;;0.30;0.30;;;22.00;68.20;;;21.86;54.88;95638.16;5022786;28;20208;-79
2022/08/06 10:30:08;;;;;;;0.30;0.30;;;22.00;68.10;;;21.83;55.57;95631.44;5046463;28;20191;-78
2022/08/06 10:33:01;;;;;;;0.32;0.32;;;21.90;68.70;;;21.90;55.55;95629.41;5029461;28;20220;-78
2022/08/06 10:35:30;;;;;;;0.30;0.30;;;22.00;68.70;;;22.00;55.66;95638.63;5016803;28;20194;-79
2022/08/06 10:38:03;;;;;;;0.30;0.30;;;22.00;68.90;;;22.11;55.59;95634.22;5010996;28;20220;-78
2022/08/06 10:40:44;;;;;;;0.30;0.30;;;22.10;68.90;;;22.17;54.45;95636.69;5028298;28;20189;-78
2022/08/06 10:43:29;;;;;;;0.30;0.30;;;22.20;68.20;;;22.25;55.34;95632.00;5052389;28;20192;-78
2022/08/06 10:46:07;;;;;;;0.30;0.30;;;22.30;68.60;;;22.35;54.12;95635.59;5039635;28;20222;-78
2022/08/06 10:48:40;;;;;;;0.30;0.30;;;22.40;68.20;;;22.46;55.34;95636.56;5023152;28;20275;-80
2022/08/06 10:51:27;;;;;;;0.40;0.40;;;22.50;68.60;;;22.63;54.77;95631.16;5055254;28;20578;-79
2022/08/06 10:54:19;;;;;;;0.30;0.30;;;22.70;68.30;;;22.78;54.68;95637.72;5016780;28;20566;-79
2022/08/06 10:56:51;;;;;;;0.40;0.40;;;22.80;68.00;;;22.94;54.50;95636.81;5056541;28;20232;-80
2022/08/06 10:59:18;;;;;;;0.30;0.30;;;22.90;68.00;;;23.10;53.93;95645.78;5043887;28;20209;-79
2022/08/06 11:02:18;;;;;;;0.50;0.50;;;23.10;67.50;;;23.23;53.69;95641.09;5037053;28;20212;-79
2022/08/06 11:04:53;;;;;;;0.30;0.30;;;23.20;67.10;;;23.40;53.80;95633.78;5028917;28;20284;-79
2022/08/06 11:07:46;;;;;;;0.30;0.30;;;23.40;67.80;;;23.60;54.13;95633.09;4997975;28;20698;-79
2022/08/06 11:11:07;;;;;;;0.30;0.30;;;23.50;67.60;;;23.85;54.10;95628.19;5002536;28;20200;-79
2022/08/06 11:13:58;;;;;;;0.30;0.30;;;23.80;67.50;;;24.00;53.09;95631.00;5022712;28;20236;-79
2022/08/06 11:16:31;;;;;;;0.50;0.50;;;23.90;66.60;;;24.09;52.91;95626.75;5059734;28;20219;-79
2022/08/06 11:19:07;;;;;;;0.52;0.52;;;24.10;66.70;;;24.12;52.80;95628.91;5038503;28;20200;-79
2022/08/06 11:21:47;;;;;;;0.40;0.40;;;24.20;66.80;;;24.13;52.10;95624.34;5029204;28;20289;-78